Time;durP1;ratioP1;P1;durP2;ratioP2;P2;SDS_P1;SDS_P2;PMS_P1;PMS_P2;Temp;Humidity;BMP_temperature;BMP_pressure;BME280_temperature;BME280_humidity;BME280_pressure;Samples;Min_cycle;Max_cycle;Signal;HPM_P1;HPM_P2
2024/02/27 00:01:37;;;;;;;32.50;18.40;;;7.50;99.90;;;;;;5038384;28;20075;-71
2024/02/27 00:04:02;;;;;;;30.42;17.75;;;7.50;99.90;;;;;;5042125;28;20025;-71
2024/02/27 00:06:29;;;;;;;30.00;17.60;;;7.50;99.90;;;;;;5037512;28;20117;-72
2024/02/27 00:08:55;;;;;;;30.60;16.90;;;7.60;99.90;;;;;;5042390;28;20532;-72
2024/02/27 00:11:22;;;;;;;31.45;17.88;;;7.60;99.90;;;;;;5051645;28;20044;-72
2024/02/27 00:13:48;;;;;;;31.40;18.65;;;7.50;99.90;;;;;;5042452;28;20021;-75
2024/02/27 00:16:16;;;;;;;32.05;19.45;;;7.50;99.90;;;;;;5040114;28;20029;-75
2024/02/27 00:18:42;;;;;;;31.88;18.48;;;7.50;99.90;;;;;;5044205;28;20627;-74
2024/02/27 00:21:08;;;;;;;29.88;17.73;;;7.50;99.90;;;;;;5048687;28;20025;-75
2024/02/27 00:23:34;;;;;;;31.30;18.00;;;7.50;99.90;;;;;;5044530;28;20021;-75
2024/02/27 00:26:00;;;;;;;33.05;18.88;;;7.30;99.90;;;;;;5052763;28;20405;-75
2024/02/27 00:28:26;;;;;;;33.78;19.20;;;7.30;99.90;;;;;;5047925;28;20033;-75
2024/02/27 00:30:51;;;;;;;30.00;17.90;;;7.30;99.90;;;;;;5053238;28;20058;-75
2024/02/27 00:33:17;;;;;;;26.63;16.50;;;7.30;99.90;;;;;;5053259;28;20040;-75
2024/02/27 00:35:43;;;;;;;33.92;18.48;;;7.30;99.90;;;;;;5052602;28;20021;-74
2024/02/27 00:38:10;;;;;;;32.97;19.38;;;7.30;99.90;;;;;;5052584;28;20059;-74
2024/02/27 00:40:36;;;;;;;29.63;16.73;;;7.30;99.90;;;;;;5053163;28;20389;-75
2024/02/27 00:43:02;;;;;;;28.85;18.13;;;7.20;99.90;;;;;;5053016;28;20020;-72
2024/02/27 00:45:28;;;;;;;32.75;18.08;;;7.30;99.90;;;;;;5049629;28;20375;-75
2024/02/27 00:47:53;;;;;;;33.78;18.80;;;7.20;99.90;;;;;;5052416;28;20371;-72
2024/02/27 00:50:19;;;;;;;31.20;17.50;;;7.20;99.90;;;;;;5045957;28;20383;-75
2024/02/27 00:52:45;;;;;;;29.13;17.20;;;7.20;99.90;;;;;;5032857;28;20021;-75
2024/02/27 00:55:11;;;;;;;31.55;18.13;;;7.20;99.90;;;;;;5032693;28;20052;-75
2024/02/27 00:57:37;;;;;;;31.30;18.45;;;7.20;99.90;;;;;;5032237;28;20044;-75
2024/02/27 01:00:11;;;;;;;30.85;17.25;;;7.10;99.90;;;;;;5042714;28;20103;-74
2024/02/27 01:02:38;;;;;;;31.52;18.58;;;7.10;99.90;;;;;;5052433;28;20172;-75
2024/02/27 01:05:05;;;;;;;35.97;19.25;;;7.10;99.90;;;;;;5039298;28;20032;-75
2024/02/27 01:07:31;;;;;;;37.30;19.60;;;7.10;99.90;;;;;;5039867;28;20489;-75
2024/02/27 01:09:57;;;;;;;32.58;19.02;;;7.10;99.90;;;;;;5046153;28;20025;-75
2024/02/27 01:12:24;;;;;;;35.30;19.80;;;7.10;99.90;;;;;;5042079;28;20017;-75
2024/02/27 01:14:50;;;;;;;33.22;19.25;;;7.10;99.90;;;;;;5051370;28;20021;-78
2024/02/27 01:17:16;;;;;;;31.38;19.02;;;7.00;99.90;;;;;;5041561;28;20068;-74
2024/02/27 01:19:42;;;;;;;35.42;20.33;;;7.00;99.90;;;;;;5048750;28;20521;-74
2024/02/27 01:22:07;;;;;;;33.72;19.45;;;7.10;99.90;;;;;;5041669;28;20382;-75
2024/02/27 01:24:33;;;;;;;33.42;20.05;;;7.00;99.90;;;;;;5059190;28;20021;-75
2024/02/27 01:26:59;;;;;;;33.92;19.80;;;7.10;99.90;;;;;;5031807;28;20113;-74
2024/02/27 01:29:28;;;;;;;34.08;19.13;;;7.00;99.90;;;;;;5048881;28;20029;-74
2024/02/27 01:31:54;;;;;;;31.35;18.10;;;7.00;99.90;;;;;;5051781;28;20085;-75
2024/02/27 01:34:20;;;;;;;34.30;19.08;;;7.00;99.90;;;;;;5052173;28;20104;-75
2024/02/27 01:36:46;;;;;;;32.00;18.25;;;7.00;99.90;;;;;;5052267;28;20541;-75
2024/02/27 01:39:13;;;;;;;33.10;18.98;;;7.00;99.90;;;;;;5045313;28;20052;-75
2024/02/27 01:41:48;;;;;;;34.72;19.42;;;7.10;99.90;;;;;;5042969;28;20024;-75
2024/02/27 01:44:14;;;;;;;31.75;17.73;;;7.00;99.90;;;;;;5051990;28;20485;-75
2024/02/27 01:46:41;;;;;;;32.92;20.02;;;7.00;99.90;;;;;;5051968;28;20107;-75
2024/02/27 01:49:10;;;;;;;33.10;18.92;;;7.10;99.90;;;;;;5050965;28;20040;-75
2024/02/27 01:51:37;;;;;;;33.88;19.15;;;7.10;99.90;;;;;;5051785;28;20036;-74
2024/02/27 01:54:04;;;;;;;34.13;19.13;;;7.00;99.90;;;;;;5051843;28;20025;-75
2024/02/27 01:56:31;;;;;;;34.15;19.40;;;7.00;99.90;;;;;;5051157;28;20021;-74
2024/02/27 01:58:57;;;;;;;34.22;19.27;;;7.10;99.90;;;;;;5038635;28;20027;-74
2024/02/27 02:01:23;;;;;;;34.65;20.42;;;7.10;99.90;;;;;;5038124;28;20029;-75
2024/02/27 02:03:51;;;;;;;35.47;19.88;;;7.10;99.90;;;;;;5038765;28;20402;-75
2024/02/27 02:06:17;;;;;;;32.70;18.77;;;7.00;99.90;;;;;;5032121;28;20433;-74
2024/02/27 02:08:43;;;;;;;35.90;19.63;;;6.90;99.90;;;;;;5041637;28;20029;-75
2024/02/27 02:11:11;;;;;;;35.83;18.83;;;6.90;99.90;;;;;;5043247;28;20087;-73
2024/02/27 02:13:37;;;;;;;33.20;18.88;;;6.90;99.90;;;;;;5051174;28;20048;-75
2024/02/27 02:16:04;;;;;;;37.45;20.48;;;6.90;99.90;;;;;;5044496;28;20034;-75
2024/02/27 02:18:30;;;;;;;35.05;19.70;;;7.00;99.90;;;;;;5037365;28;20105;-74
2024/02/27 02:20:56;;;;;;;34.97;19.25;;;7.00;99.90;;;;;;5051642;28;20099;-75
2024/02/27 02:23:22;;;;;;;32.90;18.67;;;7.00;99.90;;;;;;5051148;28;20100;-74
2024/02/27 02:25:48;;;;;;;31.02;18.05;;;6.90;99.90;;;;;;5046834;28;20029;-73
2024/02/27 02:28:14;;;;;;;37.35;19.20;;;6.90;99.90;;;;;;5051242;28;20048;-75
2024/02/27 02:30:41;;;;;;;34.38;20.20;;;6.90;99.90;;;;;;5053533;28;20088;-74
2024/02/27 02:33:09;;;;;;;36.40;19.77;;;6.90;99.90;;;;;;5054311;28;20021;-75
2024/02/27 02:35:34;;;;;;;33.28;19.13;;;7.00;99.90;;;;;;5055814;28;20112;-74
2024/02/27 02:38:00;;;;;;;38.25;19.70;;;7.00;99.90;;;;;;5055421;28;20120;-74
2024/02/27 02:40:26;;;;;;;34.53;19.35;;;6.90;99.90;;;;;;5055910;28;20528;-74
2024/02/27 02:42:52;;;;;;;35.00;19.35;;;6.90;99.90;;;;;;5055731;28;20044;-74
2024/02/27 02:45:18;;;;;;;36.42;20.80;;;7.00;99.90;;;;;;5055760;28;20024;-71
2024/02/27 02:47:44;;;;;;;34.92;19.77;;;6.90;99.90;;;;;;5054605;28;20445;-72
2024/02/27 02:50:12;;;;;;;38.03;21.38;;;7.00;99.90;;;;;;5054581;28;20025;-74
2024/02/27 02:52:38;;;;;;;38.30;21.05;;;6.90;99.90;;;;;;5055646;28;20113;-72
2024/02/27 02:55:07;;;;;;;38.92;21.02;;;6.90;99.90;;;;;;5055630;28;20474;-73
2024/02/27 02:57:34;;;;;;;35.58;20.85;;;6.90;99.90;;;;;;5054488;28;20049;-74
2024/02/27 03:00:00;;;;;;;39.95;21.38;;;7.00;99.90;;;;;;5055577;28;20029;-74
2024/02/27 03:02:26;;;;;;;34.40;20.55;;;7.00;99.90;;;;;;5055589;28;20029;-73
2024/02/27 03:04:51;;;;;;;37.70;19.90;;;6.90;99.90;;;;;;5055412;28;20116;-73
2024/02/27 03:07:17;;;;;;;37.10;20.60;;;7.00;99.90;;;;;;5053441;28;20485;-73
2024/02/27 03:09:43;;;;;;;34.72;20.15;;;7.00;99.90;;;;;;5054642;28;20044;-74
2024/02/27 03:12:09;;;;;;;38.65;21.30;;;7.00;99.90;;;;;;5055336;28;20099;-74
2024/02/27 03:14:35;;;;;;;38.00;21.35;;;7.10;99.90;;;;;;5055321;28;20143;-73
2024/02/27 03:17:01;;;;;;;34.53;19.77;;;7.10;99.90;;;;;;5054324;28;20017;-74
2024/02/27 03:19:26;;;;;;;34.05;21.05;;;7.10;99.90;;;;;;5055237;28;20021;-74
2024/02/27 03:21:56;;;;;;;37.58;20.88;;;7.10;99.90;;;;;;5054552;28;20525;-72
2024/02/27 03:24:22;;;;;;;39.65;22.58;;;7.00;99.90;;;;;;5053727;28;20434;-74
2024/02/27 03:26:48;;;;;;;34.25;20.73;;;7.10;99.90;;;;;;5052586;28;20031;-74
2024/02/27 03:29:14;;;;;;;35.95;20.63;;;7.10;99.90;;;;;;5053889;28;20489;-74
2024/02/27 03:31:40;;;;;;;36.30;19.67;;;7.10;99.90;;;;;;5054897;28;20032;-74
2024/02/27 03:34:06;;;;;;;38.33;22.60;;;7.00;99.90;;;;;;5053994;28;20029;-71
2024/02/27 03:36:31;;;;;;;39.75;21.88;;;7.10;99.90;;;;;;5053579;28;20424;-73
2024/02/27 03:38:57;;;;;;;37.60;20.95;;;7.10;99.90;;;;;;5054745;28;20025;-74
2024/02/27 03:41:23;;;;;;;36.53;20.08;;;7.10;99.90;;;;;;5054256;28;20033;-71
2024/02/27 03:43:48;;;;;;;35.88;20.20;;;7.10;99.90;;;;;;5054138;28;20062;-72
2024/02/27 03:46:14;;;;;;;34.63;21.00;;;7.10;99.90;;;;;;5054596;28;20466;-73
2024/02/27 03:48:40;;;;;;;33.53;20.85;;;7.10;99.90;;;;;;5054002;28;20033;-73
2024/02/27 03:51:05;;;;;;;39.80;21.48;;;7.20;99.90;;;;;;5052524;28;20044;-74
2024/02/27 03:53:32;;;;;;;35.17;19.90;;;7.10;99.90;;;;;;5054700;28;20025;-75
2024/02/27 03:55:58;;;;;;;41.22;21.75;;;7.10;99.90;;;;;;5054283;28;20544;-72
2024/02/27 03:58:23;;;;;;;34.67;21.13;;;7.00;99.90;;;;;;5054335;28;20017;-75
2024/02/27 04:00:50;;;;;;;38.10;21.30;;;6.90;99.90;;;;;;5054270;28;20485;-72
2024/02/27 04:03:15;;;;;;;38.30;21.30;;;6.90;99.90;;;;;;5053853;28;20482;-74
2024/02/27 04:05:41;;;;;;;36.85;20.80;;;6.90;99.90;;;;;;5052747;28;20088;-74
2024/02/27 04:08:10;;;;;;;38.25;20.38;;;6.80;99.90;;;;;;5054154;28;20468;-75
2024/02/27 04:10:36;;;;;;;34.72;20.13;;;6.80;99.90;;;;;;5053524;28;20037;-74
2024/02/27 04:13:02;;;;;;;39.03;22.27;;;6.90;99.90;;;;;;5053654;28;20029;-74
2024/02/27 04:15:28;;;;;;;40.10;23.55;;;6.80;99.90;;;;;;5053955;28;20025;-75
2024/02/27 04:17:55;;;;;;;39.17;22.25;;;6.80;99.90;;;;;;5054063;28;20470;-75
2024/02/27 04:20:20;;;;;;;42.88;22.83;;;6.80;99.90;;;;;;5053497;28;20021;-74
2024/02/27 04:22:46;;;;;;;36.97;20.48;;;6.70;99.90;;;;;;5053745;28;20025;-74
2024/02/27 04:25:12;;;;;;;35.70;20.35;;;6.80;99.90;;;;;;5053889;28;20059;-73
2024/02/27 04:27:41;;;;;;;35.35;20.25;;;6.80;99.90;;;;;;5053856;28;20090;-75
2024/02/27 04:30:08;;;;;;;38.90;21.27;;;6.80;99.90;;;;;;5052600;28;20481;-75
2024/02/27 04:32:34;;;;;;;36.33;20.70;;;6.80;99.90;;;;;;5053818;28;20091;-75
2024/02/27 04:35:01;;;;;;;35.40;19.45;;;6.70;99.90;;;;;;5051623;28;20037;-74
2024/02/27 04:37:27;;;;;;;38.28;19.95;;;6.70;99.90;;;;;;5052415;28;20032;-75
2024/02/27 04:39:54;;;;;;;40.00;21.15;;;6.70;99.90;;;;;;5053837;28;20017;-74
2024/02/27 04:42:20;;;;;;;36.83;19.95;;;6.70;99.90;;;;;;5053580;28;20535;-74
2024/02/27 04:44:45;;;;;;;37.90;20.88;;;6.70;99.90;;;;;;5052573;28;20029;-73
2024/02/27 04:47:11;;;;;;;36.60;20.17;;;6.80;99.90;;;;;;5051545;28;20120;-74
2024/02/27 04:49:37;;;;;;;40.42;21.77;;;6.80;99.90;;;;;;5052824;28;20072;-75
2024/02/27 04:52:03;;;;;;;40.55;21.25;;;6.80;99.90;;;;;;5052392;28;20029;-75
2024/02/27 04:54:29;;;;;;;41.33;21.55;;;6.70;99.90;;;;;;5052585;28;20024;-73
2024/02/27 04:56:55;;;;;;;36.63;19.60;;;6.80;99.90;;;;;;5052248;28;20025;-74
2024/02/27 04:59:20;;;;;;;37.60;20.83;;;6.80;99.90;;;;;;5052215;28;20025;-74
2024/02/27 05:01:49;;;;;;;40.03;21.13;;;6.90;99.90;;;;;;5053181;28;20466;-74
2024/02/27 05:04:16;;;;;;;39.08;21.13;;;6.80;99.90;;;;;;5052868;28;20111;-74
2024/02/27 05:06:42;;;;;;;42.00;22.35;;;6.70;99.90;;;;;;5052914;28;20047;-75
2024/02/27 05:09:08;;;;;;;42.30;21.90;;;6.60;99.90;;;;;;5052887;28;20021;-75
2024/02/27 05:11:34;;;;;;;40.70;21.98;;;6.50;99.90;;;;;;5052987;28;20113;-74
2024/02/27 05:14:00;;;;;;;41.67;22.08;;;6.60;99.90;;;;;;5053237;28;20366;-75
2024/02/27 05:16:26;;;;;;;41.25;21.85;;;6.80;99.90;;;;;;5052760;28;20021;-74
2024/02/27 05:18:52;;;;;;;38.63;21.00;;;6.80;99.90;;;;;;5051621;28;20063;-74
2024/02/27 05:21:18;;;;;;;41.45;22.67;;;6.80;99.90;;;;;;5052696;28;20480;-75
2024/02/27 05:23:44;;;;;;;46.47;22.85;;;6.80;99.90;;;;;;5052865;28;20024;-74
2024/02/27 05:26:11;;;;;;;38.85;20.50;;;6.80;99.90;;;;;;5051445;28;20111;-74
2024/02/27 05:28:37;;;;;;;40.97;21.75;;;6.80;99.90;;;;;;5052779;28;20037;-74
2024/02/27 05:31:24;;;;;;;40.42;23.00;;;6.90;99.90;;;;;;5051943;28;20436;-74
2024/02/27 05:33:54;;;;;;;42.50;23.13;;;6.90;99.90;;;;;;5052816;28;20033;-74
2024/02/27 05:36:21;;;;;;;39.47;22.65;;;7.00;99.90;;;;;;5052518;28;20036;-74
2024/02/27 05:38:47;;;;;;;43.45;22.85;;;6.90;99.90;;;;;;5052733;28;20100;-74
2024/02/27 05:41:13;;;;;;;37.72;21.05;;;7.00;99.90;;;;;;5052662;28;20104;-74
2024/02/27 05:43:39;;;;;;;36.53;20.65;;;6.90;99.90;;;;;;5052091;28;20103;-74
2024/02/27 05:46:06;;;;;;;43.22;22.92;;;6.90;99.90;;;;;;5052035;28;20021;-74
2024/02/27 05:48:38;;;;;;;38.53;21.20;;;6.90;99.90;;;;;;5052015;28;20033;-74
2024/02/27 05:51:04;;;;;;;;;;;6.90;99.90;;;;;;5051418;28;20029;-74
2024/02/27 05:53:31;;;;;;;39.15;20.90;;;6.90;99.90;;;;;;5052406;28;19981;-75
2024/02/27 05:55:57;;;;;;;41.38;21.60;;;6.80;99.90;;;;;;5052550;28;20042;-74
2024/02/27 05:58:26;;;;;;;41.28;22.55;;;6.80;99.90;;;;;;5051918;28;20025;-74
2024/02/27 06:00:52;;;;;;;38.40;22.70;;;6.80;99.90;;;;;;5050865;28;20028;-74
2024/02/27 06:03:18;;;;;;;37.95;20.63;;;6.80;99.90;;;;;;5051883;28;20033;-74
2024/02/27 06:05:44;;;;;;;43.33;24.02;;;6.90;99.90;;;;;;5050906;28;20032;-74
2024/02/27 06:08:10;;;;;;;40.45;21.98;;;6.80;99.90;;;;;;5051931;28;20041;-74
2024/02/27 06:10:36;;;;;;;42.08;22.20;;;6.70;99.90;;;;;;5051100;28;20495;-74
2024/02/27 06:13:03;;;;;;;38.38;21.75;;;6.70;99.90;;;;;;5052203;28;20029;-74
2024/02/27 06:15:28;;;;;;;39.05;21.58;;;6.80;99.90;;;;;;5051849;28;20378;-74
2024/02/27 06:17:54;;;;;;;43.20;22.10;;;6.80;99.90;;;;;;5051171;28;20021;-74
2024/02/27 06:23:04;;;;;;;42.88;22.33;;;6.80;99.90;;;;;;5052137;28;20033;-74
2024/02/27 06:25:30;;;;;;;40.92;22.45;;;6.70;99.90;;;;;;5050914;28;20604;-74
2024/02/27 06:27:55;;;;;;;48.38;23.50;;;6.70;99.90;;;;;;5050314;28;20060;-74
2024/02/27 06:30:21;;;;;;;42.90;22.17;;;6.80;99.90;;;;;;5039597;28;20030;-74
2024/02/27 06:32:47;;;;;;;33.30;17.85;;;6.80;99.90;;;;;;5048551;28;20025;-71
2024/02/27 06:35:12;;;;;;;46.08;23.27;;;6.80;99.90;;;;;;5051720;28;20029;-74
2024/02/27 06:37:40;;;;;;;43.33;23.42;;;6.90;99.90;;;;;;5051102;28;20029;-74
2024/02/27 06:40:06;;;;;;;39.83;22.45;;;6.80;99.90;;;;;;5051931;28;20509;-74
2024/02/27 06:42:36;;;;;;;44.33;23.73;;;6.80;99.90;;;;;;5052004;28;20033;-74
2024/02/27 06:45:08;;;;;;;46.83;23.00;;;6.80;99.90;;;;;;5051643;28;20671;-75
2024/02/27 06:47:37;;;;;;;40.70;22.58;;;6.80;99.90;;;;;;5051516;28;20104;-74
2024/02/27 06:50:03;;;;;;;48.45;23.60;;;6.80;99.90;;;;;;5051905;28;20470;-72
2024/02/27 06:52:28;;;;;;;48.33;25.27;;;6.80;99.90;;;;;;5041157;28;20064;-74
2024/02/27 06:54:54;;;;;;;42.20;22.45;;;6.80;99.90;;;;;;5031947;28;20021;-74
2024/02/27 06:57:20;;;;;;;42.25;21.83;;;6.80;99.90;;;;;;5031717;28;20034;-73
2024/02/27 06:59:46;;;;;;;42.33;23.30;;;6.80;99.90;;;;;;5031453;28;20029;-74
2024/02/27 07:02:12;;;;;;;41.88;23.10;;;6.80;99.90;;;;;;5048617;28;20043;-74
2024/02/27 07:04:38;;;;;;;40.08;22.80;;;6.80;99.90;;;;;;5046141;28;20079;-74
2024/02/27 07:07:04;;;;;;;39.90;22.02;;;6.70;99.90;;;;;;5041699;28;20029;-74
2024/02/27 07:09:33;;;;;;;47.00;22.35;;;6.70;99.90;;;;;;5050329;28;20073;-74
2024/02/27 07:11:59;;;;;;;41.90;22.05;;;6.60;99.90;;;;;;5051248;28;20096;-73
2024/02/27 07:14:29;;;;;;;43.38;23.33;;;6.60;99.90;;;;;;5051224;28;20501;-74
2024/02/27 07:16:55;;;;;;;40.08;22.08;;;6.60;99.90;;;;;;5048602;28;20104;-74
2024/02/27 07:19:21;;;;;;;42.83;23.35;;;6.70;99.90;;;;;;5044600;28;20017;-73
2024/02/27 07:21:50;;;;;;;42.85;22.92;;;6.70;99.90;;;;;;5044828;28;20102;-73
2024/02/27 07:24:17;;;;;;;45.97;22.88;;;6.70;99.90;;;;;;5046761;28;20025;-72
2024/02/27 07:26:42;;;;;;;46.40;23.88;;;6.70;99.90;;;;;;5038289;28;20100;-75
2024/02/27 07:29:09;;;;;;;41.70;23.67;;;6.70;99.90;;;;;;5042373;28;20068;-73
2024/02/27 07:31:35;;;;;;;43.75;24.15;;;6.70;99.90;;;;;;5040789;28;20094;-73
2024/02/27 07:34:01;;;;;;;45.85;23.45;;;6.70;99.90;;;;;;5050402;28;20029;-72
2024/02/27 07:36:26;;;;;;;43.58;24.25;;;6.70;99.90;;;;;;5054415;28;20029;-72
2024/02/27 07:38:52;;;;;;;45.42;25.50;;;6.70;99.90;;;;;;5044671;28;20544;-71
2024/02/27 07:41:19;;;;;;;47.17;24.33;;;6.70;99.90;;;;;;5038123;28;20108;-73
2024/02/27 07:43:45;;;;;;;45.88;24.77;;;6.80;99.90;;;;;;5044793;28;20098;-74
2024/02/27 07:46:17;;;;;;;46.15;26.13;;;6.80;99.90;;;;;;5054461;28;20022;-73
2024/02/27 07:48:46;;;;;;;51.17;25.83;;;6.80;99.90;;;;;;5054476;28;20363;-73
2024/02/27 07:51:27;;;;;;;48.15;25.73;;;6.80;99.90;;;;;;5054353;28;20108;-71
2024/02/27 07:53:53;;;;;;;45.78;25.20;;;6.80;99.90;;;;;;5054297;28;20029;-71
2024/02/27 07:56:19;;;;;;;49.35;24.88;;;6.90;99.90;;;;;;5053417;28;20385;-74
2024/02/27 07:58:44;;;;;;;45.08;25.63;;;6.70;99.90;;;;;;5052401;28;20021;-73
2024/02/27 08:01:10;;;;;;;47.13;25.17;;;6.80;99.90;;;;;;5040280;28;20029;-73
2024/02/27 08:03:36;;;;;;;45.95;25.05;;;6.80;99.90;;;;;;5050174;28;20486;-72
2024/02/27 08:06:02;;;;;;;45.17;26.00;;;6.90;99.90;;;;;;5047055;28;20025;-71
2024/02/27 08:08:28;;;;;;;47.80;26.02;;;6.80;99.90;;;;;;5053049;28;20029;-73
2024/02/27 08:10:55;;;;;;;46.08;24.95;;;6.80;99.90;;;;;;5053557;28;20028;-73
2024/02/27 08:13:22;;;;;;;48.08;26.38;;;6.90;99.90;;;;;;5051349;28;20116;-72
2024/02/27 08:15:48;;;;;;;47.95;26.10;;;6.90;99.90;;;;;;5042658;28;20028;-73
2024/02/27 08:18:13;;;;;;;47.20;26.65;;;6.90;99.90;;;;;;5042092;28;20033;-72
2024/02/27 08:20:39;;;;;;;50.53;27.40;;;7.00;99.90;;;;;;5053485;28;20037;-73
2024/02/27 08:23:05;;;;;;;42.85;22.83;;;6.90;99.90;;;;;;5052147;28;20082;-73
2024/02/27 08:25:31;;;;;;;51.33;25.95;;;7.10;99.90;;;;;;5053411;28;20035;-71
2024/02/27 08:27:57;;;;;;;53.40;27.00;;;7.10;99.90;;;;;;5045901;28;20044;-71
2024/02/27 08:30:22;;;;;;;48.85;25.40;;;7.00;99.90;;;;;;5043901;28;20025;-73
2024/02/27 08:32:48;;;;;;;46.88;26.00;;;7.00;99.90;;;;;;5051558;28;20470;-73
2024/02/27 08:35:14;;;;;;;48.22;26.42;;;7.00;99.90;;;;;;5051628;28;20055;-73
2024/02/27 08:37:40;;;;;;;48.55;26.25;;;7.10;99.90;;;;;;5049296;28;20485;-77
2024/02/27 08:40:07;;;;;;;47.97;26.95;;;7.00;99.90;;;;;;5043919;28;20033;-78
2024/02/27 08:42:35;;;;;;;47.72;26.45;;;7.00;99.90;;;;;;5049468;28;20107;-77
2024/02/27 08:45:01;;;;;;;44.08;25.60;;;6.90;99.90;;;;;;5033655;28;20017;-78
2024/02/27 08:47:27;;;;;;;43.63;25.98;;;7.00;99.90;;;;;;5050258;28;20378;-78
2024/02/27 08:49:52;;;;;;;43.33;25.00;;;7.00;99.90;;;;;;5042573;28;20033;-77
2024/02/27 08:52:18;;;;;;;47.33;26.08;;;7.00;99.90;;;;;;5049023;28;20021;-79
2024/02/27 08:54:43;;;;;;;44.35;24.48;;;7.20;99.90;;;;;;5051380;28;20021;-80
2024/02/27 08:57:09;;;;;;;43.58;24.95;;;7.20;99.90;;;;;;5050971;28;20486;-79
2024/02/27 08:59:36;;;;;;;43.78;23.90;;;7.10;99.90;;;;;;5051737;28;20017;-80
2024/02/27 09:02:02;;;;;;;45.20;24.95;;;6.80;99.90;;;;;;5051107;28;20063;-79
2024/02/27 09:04:29;;;;;;;45.05;25.48;;;6.90;99.90;;;;;;5040932;28;20024;-80
2024/02/27 09:06:54;;;;;;;42.30;23.95;;;7.10;99.90;;;;;;5052627;28;20386;-80
2024/02/27 09:09:20;;;;;;;42.17;24.15;;;7.10;99.90;;;;;;5044261;28;20033;-79
2024/02/27 09:11:48;;;;;;;44.58;23.83;;;7.20;99.90;;;;;;5034168;28;20053;-78
2024/02/27 09:14:14;;;;;;;44.03;23.95;;;7.20;99.90;;;;;;5053184;28;20028;-80
2024/02/27 09:16:40;;;;;;;51.15;24.75;;;7.20;99.90;;;;;;5052728;28;20017;-79
2024/02/27 09:19:05;;;;;;;39.60;22.05;;;7.20;99.90;;;;;;5052860;28;20017;-77
2024/02/27 09:21:31;;;;;;;38.78;21.92;;;7.20;99.90;;;;;;5052428;28;20445;-81
2024/02/27 09:23:57;;;;;;;43.78;23.67;;;7.00;99.90;;;;;;5051897;28;20544;-80
2024/02/27 09:26:22;;;;;;;40.13;23.17;;;7.00;99.90;;;;;;5050643;28;20497;-79
2024/02/27 09:28:50;;;;;;;40.45;24.25;;;6.90;99.90;;;;;;5040678;28;20509;-78
2024/02/27 09:31:15;;;;;;;37.50;22.83;;;6.90;99.90;;;;;;5050765;28;20363;-78
2024/02/27 09:33:41;;;;;;;43.00;24.58;;;7.00;99.90;;;;;;5051886;28;20028;-75
2024/02/27 09:36:07;;;;;;;40.33;22.48;;;7.10;99.90;;;;;;5050847;28;20087;-78
2024/02/27 09:38:33;;;;;;;41.00;23.30;;;7.10;99.90;;;;;;5045655;28;20029;-74
2024/02/27 09:41:00;;;;;;;43.38;24.52;;;7.30;99.90;;;;;;5041112;28;20087;-76
2024/02/27 09:43:30;;;;;;;38.78;22.60;;;7.40;99.90;;;;;;5048426;28;20021;-73
2024/02/27 09:46:01;;;;;;;42.28;22.42;;;7.40;99.90;;;;;;5041394;28;20043;-74
2024/02/27 09:48:29;;;;;;;40.15;22.55;;;7.40;99.90;;;;;;5050437;28;20056;-79
2024/02/27 09:50:57;;;;;;;40.58;22.63;;;7.50;99.90;;;;;;5051746;28;20549;-79
2024/02/27 09:53:25;;;;;;;41.05;24.00;;;7.50;99.90;;;;;;5050045;28;20060;-80
2024/02/27 09:55:53;;;;;;;41.92;23.52;;;7.60;99.90;;;;;;5050230;28;20025;-80
2024/02/27 09:58:21;;;;;;;43.20;23.67;;;7.60;99.90;;;;;;5051281;28;20025;-80
2024/02/27 10:00:48;;;;;;;40.20;22.80;;;7.70;99.90;;;;;;5051676;28;20053;-77
2024/02/27 10:03:16;;;;;;;37.58;21.55;;;7.80;99.90;;;;;;5051560;28;20520;-78
2024/02/27 10:05:42;;;;;;;40.03;22.98;;;7.70;99.90;;;;;;5052105;28;20021;-74
2024/02/27 10:08:17;;;;;;;36.40;21.77;;;7.70;99.90;;;;;;5039829;28;20112;-73
2024/02/27 10:10:44;;;;;;;37.50;22.20;;;7.80;99.90;;;;;;5051609;28;20095;-74
2024/02/27 10:13:10;;;;;;;33.95;20.30;;;7.70;99.90;;;;;;5037097;28;20088;-74
2024/02/27 10:15:36;;;;;;;42.25;23.30;;;7.60;99.90;;;;;;5045130;28;20017;-69
2024/02/27 10:18:03;;;;;;;40.17;22.55;;;7.60;99.90;;;;;;5038869;28;20057;-73
2024/02/27 10:20:30;;;;;;;39.03;21.65;;;7.50;99.90;;;;;;5051517;28;20524;-73
2024/02/27 10:22:57;;;;;;;34.13;21.65;;;7.60;99.90;;;;;;5051501;28;20025;-73
2024/02/27 10:25:27;;;;;;;37.30;21.40;;;7.70;99.90;;;;;;5051762;28;20074;-74
2024/02/27 10:27:52;;;;;;;36.40;21.33;;;7.80;99.90;;;;;;5038178;28;20029;-78
2024/02/27 10:30:19;;;;;;;35.63;21.10;;;7.90;99.90;;;;;;5051780;28;20029;-78
2024/02/27 10:32:45;;;;;;;34.55;21.33;;;8.10;99.90;;;;;;5036560;28;20172;-78
2024/02/27 10:35:13;;;;;;;38.35;21.45;;;8.20;99.90;;;;;;5047643;28;20104;-78
2024/02/27 10:37:39;;;;;;;39.30;21.30;;;8.30;99.90;;;;;;5031958;28;20071;-74
2024/02/27 10:40:07;;;;;;;32.47;20.55;;;8.40;99.90;;;;;;5031780;28;20029;-78
2024/02/27 10:42:33;;;;;;;32.03;20.60;;;8.40;99.90;;;;;;5050093;28;20021;-78
2024/02/27 10:44:59;;;;;;;33.05;20.67;;;8.70;99.90;;;;;;5047582;28;20164;-79
2024/02/27 10:47:25;;;;;;;27.85;17.05;;;8.80;99.90;;;;;;5038722;28;20033;-76
2024/02/27 10:49:54;;;;;;;27.27;18.30;;;9.10;99.90;;;;;;5048713;28;20036;-74
2024/02/27 10:52:28;;;;;;;32.00;19.17;;;8.90;99.90;;;;;;5041111;28;20029;-72
2024/02/27 10:54:55;;;;;;;32.20;19.77;;;8.60;99.90;;;;;;5048973;28;20533;-74
2024/02/27 10:57:20;;;;;;;30.95;18.27;;;8.60;99.90;;;;;;5047826;28;20035;-75
2024/02/27 10:59:47;;;;;;;32.00;19.35;;;8.40;99.90;;;;;;5034739;28;20385;-77
2024/02/27 11:02:18;;;;;;;30.45;20.35;;;8.40;99.90;;;;;;5036319;28;20509;-77
2024/02/27 11:04:46;;;;;;;32.75;19.52;;;8.50;99.90;;;;;;5044882;28;20053;-77
2024/02/27 11:07:15;;;;;;;31.30;18.67;;;8.60;99.90;;;;;;5035133;28;20025;-73
2024/02/27 11:09:43;;;;;;;30.08;19.38;;;8.60;99.90;;;;;;5044553;28;20041;-72
2024/02/27 11:12:14;;;;;;;26.27;16.13;;;8.60;99.90;;;;;;5040435;28;20558;-75
2024/02/27 11:14:44;;;;;;;31.00;18.02;;;8.70;99.90;;;;;;5054946;28;20029;-75
2024/02/27 11:17:22;;;;;;;31.33;17.85;;;8.70;99.90;;;;;;5054618;28;20051;-75
2024/02/27 11:19:52;;;;;;;30.58;18.58;;;8.80;99.90;;;;;;5054284;28;20383;-71
2024/02/27 11:22:21;;;;;;;28.98;19.08;;;8.80;99.90;;;;;;5054987;28;20025;-74
2024/02/27 11:24:48;;;;;;;28.98;19.45;;;8.80;99.90;;;;;;5043700;28;20416;-74
2024/02/27 11:27:20;;;;;;;29.75;18.67;;;8.90;99.90;;;;;;5048299;28;20025;-73
2024/02/27 11:29:49;;;;;;;31.02;18.85;;;9.20;99.90;;;;;;5042455;28;20040;-75
2024/02/27 11:32:15;;;;;;;28.88;19.20;;;9.00;99.90;;;;;;5044490;28;20425;-76
2024/02/27 11:34:41;;;;;;;32.75;20.10;;;9.10;99.90;;;;;;5046644;28;20094;-74
2024/02/27 11:37:12;;;;;;;30.13;20.88;;;9.30;99.90;;;;;;5048515;28;20028;-73
2024/02/27 11:39:38;;;;;;;33.17;19.27;;;9.20;99.90;;;;;;5039464;28;20435;-76
2024/02/27 11:42:05;;;;;;;32.08;18.88;;;9.30;99.90;;;;;;5053980;28;20025;-74
2024/02/27 11:44:31;;;;;;;30.52;18.00;;;9.40;99.90;;;;;;5049403;28;20148;-75
2024/02/27 11:46:57;;;;;;;30.33;19.02;;;9.50;99.90;;;;;;5042002;28;20029;-74
2024/02/27 11:49:39;;;;;;;31.00;19.85;;;9.50;99.90;;;;;;5045783;28;20048;-72
2024/02/27 11:52:07;;;;;;;31.70;19.05;;;9.50;99.90;;;;;;5045218;28;20030;-73
2024/02/27 11:54:39;;;;;;;32.55;18.85;;;9.60;99.90;;;;;;5043709;28;20463;-71
2024/02/27 11:57:05;;;;;;;28.92;18.02;;;9.60;99.90;;;;;;5046295;28;20090;-73
2024/02/27 11:59:32;;;;;;;28.23;17.48;;;9.50;99.90;;;;;;5042242;28;20032;-73
2024/02/27 12:02:03;;;;;;;28.40;16.80;;;9.60;99.90;;;;;;5040634;28;20032;-72
2024/02/27 12:04:32;;;;;;;28.23;17.97;;;9.50;99.90;;;;;;5052859;28;20021;-72
2024/02/27 12:06:58;;;;;;;29.90;16.90;;;9.60;99.90;;;;;;5039694;28;20032;-73
2024/02/27 12:09:27;;;;;;;29.30;17.30;;;9.90;99.90;;;;;;5040166;28;20051;-73
2024/02/27 12:11:53;;;;;;;31.00;17.23;;;10.00;99.90;;;;;;5041613;28;20052;-73
2024/02/27 12:14:20;;;;;;;29.17;18.10;;;10.30;99.90;;;;;;5037706;28;21773;-73
2024/02/27 12:16:46;;;;;;;27.17;16.60;;;10.40;99.90;;;;;;5038959;28;20017;-73
2024/02/27 12:19:11;;;;;;;26.27;16.75;;;10.30;99.90;;;;;;5040223;28;20043;-72
2024/02/27 12:21:37;;;;;;;27.65;17.65;;;10.30;99.90;;;;;;5034316;28;20470;-72
2024/02/27 12:24:18;;;;;;;27.52;17.48;;;10.20;99.90;;;;;;5040459;28;20492;-76
2024/02/27 12:26:46;;;;;;;25.70;16.48;;;10.20;99.90;;;;;;5036929;28;20112;-76
2024/02/27 12:29:14;;;;;;;27.17;17.20;;;10.00;99.90;;;;;;5039905;28;20033;-72
2024/02/27 12:31:41;;;;;;;27.95;17.48;;;10.00;99.90;;;;;;5043311;28;20060;-73
2024/02/27 12:34:07;;;;;;;28.27;17.92;;;9.90;99.90;;;;;;5042250;28;20030;-74
2024/02/27 12:36:33;;;;;;;25.42;17.30;;;9.90;99.90;;;;;;5033918;28;20113;-76